Flight Number: EUR2036 Duration: 1:20
Departure: Copenhagen Kastrup (EKCH) at 18:20 Distance: 386 Nm
Arrival: Riga Int'l Airport (EVRA) at 19:40 Equipment: B737

Weather Information
Koebenhavn / Kastrup, Denmark (EKCH) 55-37N 012-39E 5M May 22, 2018 - 03:20 PM EDT / 2018.05.22 1920 UTC
Wind: from the SW (220 degrees) at 5 MPH (4 KT):0
Visibility: greater than 7 mile(s):0 Temperature: 57 F (14 C) Dew Point: 50 F (10 C) Relative Humidity: 76% Pressure (altimeter): 30.09 in. Hg (1019 hPa)
ob: EKCH 221920Z 22004KT CAVOK 14/10 Q1019 NOSIG cycle: 19
Sunrise: 02:51 Sunset: 19:21 (UTC)

Riga International Airport, Latvia (EVRA) 56-55N 023-58E May 22, 2018 - 03:20 PM EDT / 2018.05.22 1920 UTC
Wind: Variable at 1 MPH (1 KT):0
Visibility: greater than 7 mile(s):0 Temperature: 53 F (12 C) Dew Point: 48 F (9 C) Relative Humidity: 81% Pressure (altimeter): 30.09 in. Hg (1019 hPa)
ob: EVRA 221920Z VRB01KT CAVOK 12/09 Q1019 NOSIG cycle: 19
Sunrise: 01:58 Sunset: 18:43 (UTC)

TAF:2018/05/22 18:03 TAF EVRA 221700Z 2218/2318 VRB02KT 9999 SCT040 TEMPO 2300/2303 0600 FG BKN002 BECMG 2306/2308 35010KT

Previous Pireps for this route
Date Aircraft Flight time Fuel used Landing rate On time
2013-01-28B7371.13100650No
2013-01-30B7371.2064500No
2013-01-31B7371.3067090No
2013-02-02B7371.13100650No
2013-03-07B73701.337756-139Yes
2013-07-21B73701.2813801-249No
2013-08-24B73701.3412616-324No
2013-11-15B73702.1011479-427Yes
2013-11-16B73702.2812607-160No
2013-12-21B7371.3067460Yes
2014-02-15B73701.3413282-162Yes
2014-02-17B73701.307866-571Yes
2014-03-22B737168850Yes
2015-03-29B73701.2511980-478Yes
(pireps marked green are flown by you)

Route map